Time;durP1;ratioP1;P1;durP2;ratioP2;P2;SDS_P1;SDS_P2;PMS_P1;PMS_P2;Temp;Humidity;BMP_temperature;BMP_pressure;BME280_temperature;BME280_humidity;BME280_pressure;Samples;Min_cycle;Max_cycle;Signal;HPM_P1;HPM_P2
2023/07/22 11:22:29;;;;;;;8.80;2.22;;;23.70;33.60;;;;;;5131185;27;20328;-74
2023/07/22 11:24:55;;;;;;;28.42;4.78;;;23.70;34.40;;;;;;5131124;28;20453;-75
2023/07/22 11:27:20;;;;;;;4.78;2.38;;;23.90;34.20;;;;;;5131213;28;20413;-78
2023/07/22 11:29:48;;;;;;;3.38;2.13;;;24.10;33.20;;;;;;5130928;28;20023;-79
2023/07/22 11:32:21;;;;;;;4.10;1.85;;;24.00;32.60;;;;;;5112186;28;20061;-79
2023/07/22 11:34:48;;;;;;;1.85;1.60;;;24.10;32.80;;;;;;5110574;28;20151;-79
2023/07/22 11:37:14;;;;;;;4.15;2.10;;;24.10;31.90;;;;;;5113020;28;20064;-77
2023/07/22 11:39:41;;;;;;;2.78;1.92;;;24.20;32.50;;;;;;5130687;28;20019;-77
2023/07/22 11:42:07;;;;;;;3.47;2.08;;;24.40;31.00;;;;;;5112522;28;20490;-79
2023/07/22 11:44:33;;;;;;;2.63;1.92;;;24.40;31.30;;;;;;5112459;28;20059;-78
2023/07/22 11:47:04;;;;;;;2.00;1.85;;;24.30;31.60;;;;;;5112587;28;20058;-80
2023/07/22 11:49:35;;;;;;;4.57;2.20;;;24.40;31.00;;;;;;5112638;28;20120;-78
2023/07/22 11:52:09;;;;;;;3.40;2.33;;;24.30;31.90;;;;;;5112118;28;20035;-79
2023/07/22 11:54:37;;;;;;;4.50;2.10;;;24.50;31.60;;;;;;5112289;28;20358;-79
2023/07/22 11:57:29;;;;;;;4.28;2.60;;;24.70;31.60;;;;;;5112156;28;20028;-80
2023/07/22 11:59:57;;;;;;;2.47;2.20;;;24.80;30.90;;;;;;5126080;28;20324;-80
2023/07/22 12:02:24;;;;;;;4.63;2.45;;;24.60;30.20;;;;;;5112190;28;20020;-77
2023/07/22 12:04:59;;;;;;;4.15;2.42;;;24.50;30.70;;;;;;5111959;28;20023;-77
2023/07/22 12:07:33;;;;;;;2.13;1.80;;;24.20;31.00;;;;;;5112278;28;20160;-76
2023/07/22 12:10:03;;;;;;;4.70;2.50;;;23.60;31.80;;;;;;5130383;28;20031;-77
2023/07/22 12:12:49;;;;;;;4.55;2.15;;;23.60;32.60;;;;;;5112145;28;20027;-78
2023/07/22 12:15:31;;;;;;;4.00;2.40;;;23.90;31.90;;;;;;5128701;28;20023;-77
2023/07/22 12:18:00;;;;;;;2.60;2.28;;;24.50;29.80;;;;;;5111011;28;20306;-76
2023/07/22 12:20:31;;;;;;;4.35;3.20;;;24.90;27.40;;;;;;5110538;28;20050;-77
2023/07/22 12:22:59;;;;;;;4.65;3.35;;;25.20;25.40;;;;;;5129026;28;20016;-75
2023/07/22 12:25:26;;;;;;;4.07;2.90;;;25.40;24.90;;;;;;5111935;28;20068;-76
2023/07/22 12:27:51;;;;;;;5.30;2.80;;;25.40;23.40;;;;;;5112090;28;20382;-76
2023/07/22 12:30:17;;;;;;;3.65;2.28;;;25.00;27.30;;;;;;5111423;28;20023;-76
2023/07/22 12:32:43;;;;;;;5.63;2.25;;;24.80;30.00;;;;;;5109975;28;20091;-75
2023/07/22 12:35:10;;;;;;;2.58;2.20;;;24.80;29.70;;;;;;5097778;28;20062;-75
2023/07/22 12:37:36;;;;;;;3.10;2.50;;;25.20;29.30;;;;;;5097635;28;20034;-75
2023/07/22 12:40:05;;;;;;;5.35;2.60;;;25.50;26.60;;;;;;5097685;28;20024;-74
2023/07/22 12:42:30;;;;;;;6.75;2.58;;;25.70;25.20;;;;;;5097696;28;20030;-75
2023/07/22 12:44:56;;;;;;;3.20;2.10;;;25.60;26.30;;;;;;5097468;28;20110;-76
2023/07/22 12:47:21;;;;;;;2.40;1.90;;;25.50;28.10;;;;;;5097336;28;20115;-75
2023/07/22 12:49:47;;;;;;;3.50;2.28;;;25.90;27.20;;;;;;5115882;28;20534;-75
2023/07/22 12:52:13;;;;;;;2.47;2.08;;;26.30;26.90;;;;;;5097106;28;20035;-74
2023/07/22 12:54:39;;;;;;;2.17;1.95;;;26.50;27.10;;;;;;5097339;28;20023;-74
2023/07/22 12:57:05;;;;;;;3.20;2.30;;;26.50;27.90;;;;;;5097259;28;20080;-75
2023/07/22 12:59:31;;;;;;;3.30;2.45;;;26.70;27.40;;;;;;5097289;28;20111;-75
2023/07/22 13:01:58;;;;;;;2.35;1.98;;;26.90;26.40;;;;;;5097166;28;20024;-75
2023/07/22 13:04:24;;;;;;;5.13;2.63;;;27.10;27.00;;;;;;5097593;28;20376;-75
2023/07/22 13:06:51;;;;;;;3.90;2.70;;;27.00;25.20;;;;;;5097230;28;20035;-75
2023/07/22 13:09:17;;;;;;;4.80;2.85;;;26.70;24.80;;;;;;5096428;28;20027;-76
2023/07/22 13:11:43;;;;;;;5.15;3.22;;;26.40;25.10;;;;;;5096800;28;20028;-76
2023/07/22 13:14:09;;;;;;;4.78;2.47;;;26.60;25.00;;;;;;5097071;28;20024;-75
2023/07/22 13:16:35;;;;;;;5.63;3.15;;;26.60;24.10;;;;;;5115442;28;20027;-75
2023/07/22 13:19:02;;;;;;;6.55;3.42;;;26.60;22.90;;;;;;5097240;28;20425;-75
2023/07/22 13:21:29;;;;;;;4.80;3.35;;;26.60;23.70;;;;;;5096807;28;20052;-75
2023/07/22 13:23:54;;;;;;;5.32;3.75;;;26.30;24.00;;;;;;5096900;28;20115;-76
2023/07/22 13:26:20;;;;;;;7.03;3.75;;;26.20;24.40;;;;;;5115223;28;20051;-75
2023/07/22 13:28:46;;;;;;;6.75;3.10;;;26.30;23.60;;;;;;5097247;28;20054;-75
2023/07/22 13:31:11;;;;;;;5.93;4.35;;;26.10;24.90;;;;;;5115000;28;20062;-76
2023/07/22 13:33:37;;;;;;;3.88;3.38;;;26.00;22.90;;;;;;5096687;28;20020;-75
2023/07/22 13:36:02;;;;;;;6.57;3.80;;;25.80;22.60;;;;;;5114677;28;20039;-75
2023/07/22 13:38:28;;;;;;;6.15;3.03;;;25.90;25.90;;;;;;5096557;28;20027;-75
2023/07/22 13:40:55;;;;;;;9.05;4.43;;;25.90;24.70;;;;;;5096652;28;20119;-75
2023/07/22 13:43:20;;;;;;;4.07;3.22;;;26.00;24.40;;;;;;5096311;28;20027;-75
2023/07/22 13:45:46;;;;;;;4.63;3.30;;;26.10;23.50;;;;;;5095759;28;20032;-74
2023/07/22 13:48:12;;;;;;;6.18;3.05;;;26.10;23.00;;;;;;5115206;28;20094;-75
2023/07/22 13:50:38;;;;;;;4.40;3.20;;;26.20;24.00;;;;;;5096312;28;20196;-75
2023/07/22 13:53:03;;;;;;;4.88;3.63;;;26.10;23.90;;;;;;5098473;28;20027;-74
2023/07/22 13:55:30;;;;;;;4.15;3.58;;;26.30;23.90;;;;;;5100108;28;20020;-76
2023/07/22 13:57:58;;;;;;;8.23;3.25;;;26.50;24.40;;;;;;5099852;28;20027;-76
2023/07/22 14:00:25;;;;;;;3.63;3.22;;;26.70;23.20;;;;;;5080189;28;20384;-75
2023/07/22 14:02:50;;;;;;;6.53;3.15;;;26.30;24.00;;;;;;5079891;28;20059;-75
2023/07/22 14:05:16;;;;;;;4.63;3.85;;;25.50;24.20;;;;;;5096398;28;20051;-75
2023/07/22 14:07:41;;;;;;;4.38;3.25;;;25.50;24.50;;;;;;5096534;28;20092;-75
2023/07/22 14:10:08;;;;;;;4.10;3.35;;;25.70;24.20;;;;;;5096552;28;20498;-75
2023/07/22 14:12:34;;;;;;;4.15;3.10;;;25.60;25.00;;;;;;5095924;28;20333;-75
2023/07/22 14:15:00;;;;;;;5.60;4.10;;;25.40;24.70;;;;;;5113603;28;20039;-75
2023/07/22 14:17:26;;;;;;;9.07;3.28;;;25.50;25.20;;;;;;5114257;28;20027;-76
2023/07/22 14:19:51;;;;;;;4.97;3.50;;;25.40;25.10;;;;;;5095877;28;20399;-76
2023/07/22 14:22:17;;;;;;;8.05;3.22;;;25.30;25.20;;;;;;5095782;28;20130;-76
2023/07/22 14:24:43;;;;;;;6.22;3.35;;;25.50;25.70;;;;;;5095810;28;20027;-75
2023/07/22 14:27:08;;;;;;;5.28;3.35;;;25.80;25.20;;;;;;5095512;28;20487;-77
2023/07/22 14:29:34;;;;;;;6.60;3.25;;;26.10;24.60;;;;;;5113779;28;20025;-75
2023/07/22 14:32:00;;;;;;;4.90;3.45;;;26.10;24.60;;;;;;5094776;28;20042;-76
2023/07/22 14:34:25;;;;;;;5.18;3.40;;;26.10;25.50;;;;;;5095600;28;20020;-75
2023/07/22 14:36:51;;;;;;;6.60;3.60;;;26.50;23.70;;;;;;5113109;28;20038;-75
2023/07/22 14:39:17;;;;;;;5.00;3.55;;;26.60;23.10;;;;;;5113688;28;20035;-75
2023/07/22 14:41:45;;;;;;;4.38;3.15;;;26.70;24.10;;;;;;5095366;28;20476;-75
2023/07/22 14:44:11;;;;;;;4.82;3.10;;;26.10;24.60;;;;;;5095158;28;20447;-75
2023/07/22 14:46:36;;;;;;;3.92;2.95;;;25.80;24.70;;;;;;5113541;28;20095;-75
2023/07/22 14:49:02;;;;;;;4.50;2.90;;;26.00;25.10;;;;;;5095232;28;20541;-75
2023/07/22 14:51:28;;;;;;;4.43;3.70;;;26.40;24.60;;;;;;5094824;28;20496;-75
2023/07/22 14:53:54;;;;;;;3.45;2.88;;;26.60;24.30;;;;;;5095323;28;20024;-75
2023/07/22 14:56:19;;;;;;;4.43;2.83;;;26.70;24.60;;;;;;5094350;28;20027;-76
2023/07/22 14:58:45;;;;;;;3.33;2.80;;;26.50;24.80;;;;;;5095242;28;20133;-75
2023/07/22 15:01:11;;;;;;;4.90;2.67;;;26.50;23.90;;;;;;5094775;28;20383;-76
2023/07/22 15:03:38;;;;;;;3.53;3.05;;;26.30;24.70;;;;;;5095189;28;20076;-76
2023/07/22 15:06:04;;;;;;;5.72;3.15;;;26.20;24.70;;;;;;5095386;28;20084;-76
2023/07/22 15:08:30;;;;;;;3.53;3.00;;;25.90;24.70;;;;;;5094913;28;20016;-75
2023/07/22 15:10:56;;;;;;;3.90;3.45;;;25.80;24.70;;;;;;5094461;28;20027;-76
2023/07/22 15:13:22;;;;;;;5.60;3.20;;;25.70;25.30;;;;;;5095123;28;20061;-76
2023/07/22 15:15:47;;;;;;;5.00;3.80;;;25.60;26.40;;;;;;5117570;28;20030;-75
2023/07/22 15:18:13;;;;;;;6.43;3.40;;;25.40;25.50;;;;;;5095001;28;20148;-77
2023/07/22 15:20:40;;;;;;;5.88;3.20;;;25.40;26.90;;;;;;5091634;28;20040;-76
2023/07/22 15:23:05;;;;;;;6.28;3.47;;;25.40;27.50;;;;;;5091445;28;20081;-76
2023/07/22 15:25:31;;;;;;;3.92;3.33;;;25.40;27.50;;;;;;5091590;28;20024;-76
2023/07/22 15:27:56;;;;;;;4.80;3.53;;;25.40;27.60;;;;;;5091191;28;20464;-76
2023/07/22 15:30:22;;;;;;;5.00;3.95;;;25.70;26.10;;;;;;5091453;28;20121;-75
2023/07/22 15:32:48;;;;;;;4.95;3.47;;;25.80;26.00;;;;;;5091929;28;20039;-75
2023/07/22 15:35:14;;;;;;;3.75;2.95;;;26.00;25.80;;;;;;5091679;28;20024;-75
2023/07/22 15:37:40;;;;;;;3.78;2.90;;;26.10;26.00;;;;;;5091682;28;20371;-74
2023/07/22 15:40:06;;;;;;;3.40;2.83;;;26.20;25.50;;;;;;5091422;28;20020;-75
2023/07/22 15:42:32;;;;;;;4.15;3.40;;;25.80;25.20;;;;;;5090951;28;20025;-75
2023/07/22 15:44:58;;;;;;;3.20;2.88;;;25.70;25.70;;;;;;5093041;28;20035;-75
2023/07/22 15:47:24;;;;;;;4.13;2.70;;;25.70;25.60;;;;;;5091382;28;20475;-75
2023/07/22 15:49:49;;;;;;;5.00;2.80;;;25.30;27.00;;;;;;5091487;28;20047;-75
2023/07/22 15:52:15;;;;;;;3.45;2.90;;;25.30;28.20;;;;;;5091405;28;20097;-75
2023/07/22 15:54:40;;;;;;;6.07;3.05;;;25.60;27.50;;;;;;5091653;28;20023;-74
2023/07/22 15:57:06;;;;;;;4.85;3.53;;;25.80;27.40;;;;;;5091193;28;20073;-74
2023/07/22 15:59:32;;;;;;;4.13;2.88;;;26.20;26.40;;;;;;5091476;28;20022;-75
2023/07/22 16:01:59;;;;;;;5.32;3.08;;;26.30;25.80;;;;;;5091211;28;20031;-75
2023/07/22 16:04:26;;;;;;;3.85;2.92;;;26.10;26.00;;;;;;5089501;28;20085;-75
2023/07/22 16:06:52;;;;;;;3.42;3.00;;;25.70;27.10;;;;;;5077801;28;20020;-74
2023/07/22 16:09:17;;;;;;;7.07;2.65;;;25.90;26.50;;;;;;5088635;28;20157;-73
2023/07/22 16:11:43;;;;;;;5.13;3.13;;;25.90;27.40;;;;;;5087222;28;20477;-73
2023/07/22 16:14:09;;;;;;;3.33;2.65;;;26.20;26.10;;;;;;5081189;28;20094;-74
2023/07/22 16:16:35;;;;;;;2.78;2.50;;;26.40;25.50;;;;;;5083026;28;20025;-75
2023/07/22 16:19:01;;;;;;;4.55;2.50;;;26.20;25.40;;;;;;5084002;28;20012;-75
2023/07/22 16:21:26;;;;;;;2.53;2.33;;;26.10;25.70;;;;;;5084280;28;20048;-74
2023/07/22 16:23:52;;;;;;;3.88;2.45;;;25.80;26.00;;;;;;5076414;28;20469;-74
2023/07/22 16:26:17;;;;;;;4.03;2.60;;;25.50;26.80;;;;;;5074576;28;20362;-75
2023/07/22 16:28:43;;;;;;;4.07;2.22;;;25.40;26.90;;;;;;5074464;28;20073;-75
2023/07/22 16:31:09;;;;;;;4.93;2.60;;;25.60;26.20;;;;;;5074184;28;20025;-75
2023/07/22 16:33:36;;;;;;;2.53;2.13;;;25.40;25.90;;;;;;5074224;28;20020;-75
2023/07/22 16:36:01;;;;;;;3.38;2.58;;;25.00;25.80;;;;;;5076050;28;20078;-75
2023/07/22 16:38:27;;;;;;;3.28;2.10;;;24.80;26.30;;;;;;5079125;28;20029;-76
2023/07/22 16:40:52;;;;;;;4.00;2.45;;;24.80;26.70;;;;;;5074923;28;20025;-74
2023/07/22 16:43:18;;;;;;;5.57;2.33;;;24.80;26.80;;;;;;5074095;28;20485;-74
2023/07/22 16:45:43;;;;;;;4.03;2.00;;;24.80;26.30;;;;;;5074123;28;20028;-75
2023/07/22 16:48:09;;;;;;;2.83;2.35;;;24.90;26.30;;;;;;5075142;28;20027;-81
2023/07/22 16:50:35;;;;;;;2.65;2.08;;;24.90;26.50;;;;;;5075207;28;20039;-81
2023/07/22 16:53:02;;;;;;;2.15;1.95;;;24.90;27.30;;;;;;5075444;28;20070;-83
2023/07/22 16:55:28;;;;;;;3.47;2.30;;;24.90;26.70;;;;;;5074680;28;20078;-84
2023/07/22 16:57:54;;;;;;;3.03;1.95;;;24.90;26.50;;;;;;5074468;28;20035;-85
2023/07/22 17:00:20;;;;;;;3.38;1.80;;;24.80;25.80;;;;;;5076239;28;20020;-85
2023/07/22 17:02:46;;;;;;;2.10;1.88;;;24.80;26.00;;;;;;5076493;28;20453;-81
2023/07/22 17:05:12;;;;;;;3.83;1.42;;;24.70;26.30;;;;;;5076868;28;20028;-88
2023/07/22 17:07:41;;;;;;;3.22;1.88;;;24.60;25.90;;;;;;5076096;28;20036;-80
2023/07/22 17:10:07;;;;;;;3.67;1.90;;;24.50;25.80;;;;;;5077468;28;20017;-87
2023/07/22 17:12:36;;;;;;;2.88;2.00;;;24.30;25.60;;;;;;5076476;28;20040;-86
2023/07/22 17:15:02;;;;;;;1.70;1.58;;;24.20;26.20;;;;;;5078794;28;20491;-88
2023/07/22 17:17:27;;;;;;;3.17;1.27;;;24.10;26.50;;;;;;5079437;28;20033;-87
2023/07/22 17:19:53;;;;;;;3.10;2.00;;;24.10;27.00;;;;;;5079111;28;20036;-88
2023/07/22 17:22:18;;;;;;;2.45;1.70;;;24.10;27.20;;;;;;5120824;28;20063;-85
2023/07/22 17:24:44;;;;;;;3.15;1.70;;;24.10;26.30;;;;;;5117790;28;20352;-87
2023/07/22 17:27:09;;;;;;;3.40;2.03;;;24.00;26.90;;;;;;5116670;28;20546;-85
2023/07/22 17:29:35;;;;;;;3.08;2.47;;;24.00;27.30;;;;;;5118514;28;20039;-84
2023/07/22 17:32:01;;;;;;;2.97;1.80;;;23.90;27.60;;;;;;5118074;28;20096;-87
2023/07/22 17:34:26;;;;;;;2.17;1.83;;;23.80;28.00;;;;;;5118564;28;20148;-90
2023/07/22 17:36:52;;;;;;;3.88;1.65;;;23.60;28.70;;;;;;5120337;28;20032;-89
2023/07/22 17:39:18;;;;;;;3.67;2.10;;;23.60;28.90;;;;;;5118825;28;20027;-89
2023/07/22 17:41:44;;;;;;;2.85;2.10;;;23.70;29.50;;;;;;5101190;28;20024;-87
2023/07/22 17:44:10;;;;;;;4.80;1.92;;;23.70;29.60;;;;;;5119219;28;20065;-90
2023/07/22 17:46:36;;;;;;;3.75;2.10;;;23.70;30.00;;;;;;5116976;28;20106;-78
2023/07/22 17:49:02;;;;;;;4.22;2.90;;;23.80;30.00;;;;;;5115245;28;20050;-74
2023/07/22 17:51:27;;;;;;;3.55;2.30;;;23.90;30.20;;;;;;5115271;28;20126;-74
2023/07/22 17:53:53;;;;;;;3.05;2.30;;;23.90;30.00;;;;;;5115031;28;20027;-74
2023/07/22 17:56:18;;;;;;;2.90;2.05;;;23.80;30.20;;;;;;5114495;28;20035;-76
2023/07/22 17:58:44;;;;;;;4.50;2.80;;;23.80;30.30;;;;;;5098267;28;20012;-78
2023/07/22 18:01:10;;;;;;;2.85;2.42;;;23.80;30.10;;;;;;5117267;28;20460;-81
2023/07/22 18:03:36;;;;;;;2.90;2.30;;;23.90;30.30;;;;;;5126691;28;20015;-91
2023/07/22 18:06:02;;;;;;;3.95;2.10;;;23.80;30.00;;;;;;5122190;28;20042;-87
2023/07/22 18:08:28;;;;;;;3.47;2.85;;;23.80;29.80;;;;;;5130912;28;20460;-84
2023/07/22 18:10:53;;;;;;;6.63;3.47;;;23.80;30.10;;;;;;5131379;28;20051;-92
2023/07/22 18:13:19;;;;;;;3.50;2.58;;;23.70;30.20;;;;;;5132005;28;20088;-78
2023/07/22 18:15:44;;;;;;;3.70;2.15;;;23.80;30.10;;;;;;5113064;28;20023;-85
2023/07/22 18:18:10;;;;;;;4.68;2.00;;;23.90;29.80;;;;;;5127117;28;20012;-91
2023/07/22 18:20:36;;;;;;;4.47;2.10;;;23.80;29.90;;;;;;5122037;28;20040;-90
2023/07/22 18:23:01;;;;;;;2.42;2.17;;;23.70;29.70;;;;;;5117986;28;20019;-90
2023/07/22 18:25:27;;;;;;;3.03;2.10;;;23.60;30.20;;;;;;5118820;28;20062;-89
2023/07/22 18:27:53;;;;;;;4.80;2.00;;;23.50;30.50;;;;;;5097738;28;20023;-82
2023/07/22 18:30:18;;;;;;;2.72;2.35;;;23.40;30.50;;;;;;5113955;28;20035;-84
2023/07/22 18:32:44;;;;;;;3.55;2.35;;;23.30;30.70;;;;;;5096028;28;20028;-75
2023/07/22 18:35:10;;;;;;;4.00;2.38;;;23.30;31.20;;;;;;5113693;28;20042;-75
2023/07/22 18:37:35;;;;;;;4.65;2.53;;;23.30;31.40;;;;;;5113734;28;20108;-76
2023/07/22 18:40:03;;;;;;;2.70;1.85;;;23.30;31.40;;;;;;5113391;28;20112;-80
2023/07/22 18:42:29;;;;;;;3.92;2.85;;;23.30;31.40;;;;;;5113818;28;20110;-83
2023/07/22 18:44:57;;;;;;;2.65;2.30;;;23.30;31.50;;;;;;5114174;28;20150;-80
2023/07/22 18:47:24;;;;;;;3.42;2.25;;;23.20;31.70;;;;;;5113651;28;20024;-77
2023/07/22 18:49:49;;;;;;;4.03;2.20;;;23.10;32.40;;;;;;5113180;28;20467;-74
2023/07/22 18:52:15;;;;;;;3.47;2.35;;;23.00;32.30;;;;;;5114116;28;20058;-73
2023/07/22 18:54:41;;;;;;;3.28;2.10;;;22.90;32.80;;;;;;5115429;28;20055;-79
2023/07/22 18:57:07;;;;;;;2.60;2.40;;;22.80;33.70;;;;;;5096033;28;20023;-84
2023/07/22 18:59:34;;;;;;;3.63;2.75;;;22.70;33.20;;;;;;5114237;28;20030;-85
2023/07/22 19:01:59;;;;;;;2.92;2.40;;;22.60;33.40;;;;;;5096166;28;20431;-84
2023/07/22 19:04:25;;;;;;;3.65;2.80;;;22.60;33.70;;;;;;5114169;28;20028;-85
2023/07/22 19:06:53;;;;;;;4.47;3.00;;;22.40;34.00;;;;;;5095783;28;20026;-86
2023/07/22 19:09:19;;;;;;;3.80;2.90;;;22.40;34.10;;;;;;5114195;28;20132;-84
2023/07/22 19:11:44;;;;;;;4.97;3.17;;;22.40;34.30;;;;;;5113975;28;20027;-86
2023/07/22 19:14:10;;;;;;;4.30;2.80;;;22.30;34.40;;;;;;5114087;28;20027;-84
2023/07/22 19:16:35;;;;;;;5.55;3.13;;;22.20;34.50;;;;;;5114085;28;20023;-85
2023/07/22 19:19:01;;;;;;;3.97;2.95;;;22.20;34.60;;;;;;5116986;28;20019;-83
2023/07/22 19:21:26;;;;;;;3.17;2.70;;;22.10;34.90;;;;;;5116403;28;20093;-82
2023/07/22 19:23:52;;;;;;;2.90;2.60;;;22.10;35.30;;;;;;5098359;28;20376;-82
2023/07/22 19:26:17;;;;;;;4.13;2.97;;;22.10;35.30;;;;;;5119044;28;20448;-87
2023/07/22 19:28:43;;;;;;;3.60;2.83;;;22.00;35.60;;;;;;5118348;28;20024;-89
2023/07/22 19:31:09;;;;;;;5.28;2.85;;;21.90;35.80;;;;;;5118456;28;20031;-82
2023/07/22 19:33:34;;;;;;;3.35;2.80;;;22.00;36.00;;;;;;5116175;28;20165;-84
2023/07/22 19:36:01;;;;;;;3.05;2.30;;;21.90;36.10;;;;;;5116714;28;20042;-87
2023/07/22 19:38:27;;;;;;;3.55;2.80;;;21.90;36.50;;;;;;5115141;28;20034;-83
2023/07/22 19:41:02;;;;;;;7.55;3.13;;;21.90;36.60;;;;;;5095327;28;20024;-81
2023/07/22 19:43:28;;;;;;;2.90;2.60;;;21.80;36.80;;;;;;5116206;28;20032;-79
2023/07/22 19:46:04;;;;;;;3.63;2.30;;;21.80;36.90;;;;;;5117371;28;20031;-76
2023/07/22 19:48:32;;;;;;;3.72;2.35;;;21.70;37.10;;;;;;5117366;28;20066;-77
2023/07/22 19:50:59;;;;;;;5.35;2.60;;;21.70;37.30;;;;;;5116349;28;20035;-75
2023/07/22 19:53:24;;;;;;;4.25;3.05;;;21.70;37.40;;;;;;5116493;28;20069;-75
2023/07/22 19:55:50;;;;;;;4.50;2.83;;;21.70;37.40;;;;;;5116308;28;20422;-75
2023/07/22 19:58:17;;;;;;;4.47;2.53;;;21.70;37.60;;;;;;5116165;28;20023;-76
2023/07/22 20:00:43;;;;;;;5.32;2.15;;;21.70;37.70;;;;;;5116877;28;20081;-76
2023/07/22 20:03:09;;;;;;;2.90;2.60;;;21.60;37.80;;;;;;5117121;28;20020;-76
2023/07/22 20:05:34;;;;;;;4.38;2.30;;;21.60;37.90;;;;;;5117018;28;20051;-76
2023/07/22 20:08:00;;;;;;;5.40;2.05;;;21.60;37.90;;;;;;5117039;28;20011;-76
2023/07/22 20:10:27;;;;;;;6.45;2.63;;;21.60;38.00;;;;;;5116606;28;20024;-75
2023/07/22 20:12:53;;;;;;;2.97;2.53;;;21.60;38.50;;;;;;5116769;28;20027;-75
2023/07/22 20:15:18;;;;;;;3.60;2.70;;;21.50;38.80;;;;;;5116944;28;20106;-75
2023/07/22 20:17:44;;;;;;;2.85;2.50;;;21.50;39.50;;;;;;5098472;28;20380;-74
2023/07/22 20:20:09;;;;;;;3.17;2.78;;;21.40;39.90;;;;;;5121906;28;20087;-75
2023/07/22 20:22:35;;;;;;;3.25;2.95;;;21.30;40.30;;;;;;5117102;28;20019;-75
2023/07/22 20:25:00;;;;;;;3.60;2.88;;;21.20;40.90;;;;;;5116814;28;20110;-74
2023/07/22 20:27:26;;;;;;;3.28;2.85;;;21.10;41.30;;;;;;5116223;28;20069;-73
2023/07/22 20:29:54;;;;;;;3.88;2.78;;;21.00;41.80;;;;;;5116497;28;20077;-74
2023/07/22 20:32:20;;;;;;;5.78;3.05;;;20.90;42.00;;;;;;5116234;28;20058;-74
2023/07/22 20:34:45;;;;;;;4.15;2.60;;;20.70;42.30;;;;;;5116188;28;20437;-73
2023/07/22 20:37:11;;;;;;;3.15;2.80;;;20.50;42.80;;;;;;5116239;28;20502;-73
2023/07/22 20:39:36;;;;;;;6.43;3.15;;;20.40;43.30;;;;;;5116293;28;20016;-73
2023/07/22 20:42:02;;;;;;;4.25;3.17;;;20.30;43.90;;;;;;5116158;28;20072;-74
2023/07/22 20:44:28;;;;;;;4.45;3.50;;;20.20;44.00;;;;;;5119281;28;20019;-73
2023/07/22 20:46:53;;;;;;;2.80;2.55;;;20.10;44.50;;;;;;5116037;28;20027;-73
2023/07/22 20:49:19;;;;;;;5.78;3.40;;;20.00;44.60;;;;;;5115848;28;20106;-74
2023/07/22 20:51:44;;;;;;;4.88;3.08;;;19.90;44.60;;;;;;5115758;28;20036;-75
2023/07/22 20:54:10;;;;;;;7.78;3.70;;;19.80;44.70;;;;;;5097025;28;20030;-73
2023/07/22 20:56:36;;;;;;;4.95;2.88;;;19.80;45.10;;;;;;5097484;28;20080;-73
2023/07/22 20:59:01;;;;;;;3.95;2.88;;;19.70;45.20;;;;;;5115969;28;20051;-73
2023/07/22 21:01:27;;;;;;;4.20;3.22;;;19.60;45.50;;;;;;5115594;28;20156;-75
2023/07/22 21:03:52;;;;;;;3.80;3.15;;;19.60;45.60;;;;;;5115583;28;20387;-73
2023/07/22 21:06:18;;;;;;;5.32;3.25;;;19.50;45.90;;;;;;5097206;28;20028;-73
2023/07/22 21:08:45;;;;;;;4.05;2.63;;;19.50;46.00;;;;;;5115508;28;20093;-74
2023/07/22 21:11:11;;;;;;;7.18;3.25;;;19.40;46.60;;;;;;5097106;28;20031;-74
2023/07/22 21:13:38;;;;;;;7.88;3.08;;;19.40;46.50;;;;;;5115326;28;20019;-74
2023/07/22 21:16:03;;;;;;;12.98;7.03;;;19.30;46.60;;;;;;5115455;28;20478;-73
2023/07/22 21:18:29;;;;;;;5.28;4.40;;;19.30;46.90;;;;;;5115373;28;20059;-75
2023/07/22 21:20:55;;;;;;;18.98;13.02;;;19.30;46.90;;;;;;5115112;28;20084;-73
2023/07/22 21:23:20;;;;;;;14.98;11.23;;;19.30;46.90;;;;;;5115390;28;20136;-73
2023/07/22 21:25:46;;;;;;;13.30;9.07;;;19.30;47.20;;;;;;5096991;28;20032;-75
2023/07/22 21:28:12;;;;;;;8.75;6.45;;;19.30;47.40;;;;;;5115389;28;20027;-73
2023/07/22 21:30:37;;;;;;;8.65;4.75;;;19.20;47.70;;;;;;5115045;28;20024;-74
2023/07/22 21:33:04;;;;;;;7.13;4.55;;;19.20;47.90;;;;;;5115153;28;20096;-75
2023/07/22 21:35:34;;;;;;;3.75;3.20;;;19.20;48.10;;;;;;5115309;28;20054;-74
2023/07/22 21:38:01;;;;;;;4.65;2.70;;;19.10;48.20;;;;;;5096724;28;20023;-74
2023/07/22 21:40:27;;;;;;;6.13;2.83;;;19.10;48.60;;;;;;5114883;28;20383;-74
2023/07/22 21:42:52;;;;;;;4.25;2.83;;;19.10;48.60;;;;;;5115099;28;20028;-73
2023/07/22 21:45:18;;;;;;;3.42;2.90;;;19.10;48.70;;;;;;5114876;28;20512;-74
2023/07/22 21:47:44;;;;;;;3.13;2.80;;;19.10;48.80;;;;;;5114554;28;20027;-74
2023/07/22 21:50:09;;;;;;;3.72;2.63;;;19.00;49.00;;;;;;5114786;28;20023;-73
2023/07/22 21:52:35;;;;;;;3.65;2.70;;;18.90;49.10;;;;;;5096044;28;20429;-73
2023/07/22 21:55:01;;;;;;;6.57;2.92;;;18.90;49.10;;;;;;5114582;28;20590;-74
2023/07/22 21:57:26;;;;;;;5.32;3.38;;;18.90;49.30;;;;;;5114385;28;20027;-73
2023/07/22 21:59:52;;;;;;;4.38;3.35;;;18.80;49.40;;;;;;5114472;28;20030;-75
2023/07/22 22:02:18;;;;;;;5.65;3.20;;;18.70;49.50;;;;;;5113695;28;20028;-75
2023/07/22 22:04:43;;;;;;;3.83;2.95;;;18.70;49.80;;;;;;5113563;28;20058;-76
2023/07/22 22:07:09;;;;;;;4.78;2.75;;;18.60;49.80;;;;;;5113713;28;20450;-74
2023/07/22 22:09:34;;;;;;;5.00;3.08;;;18.50;50.30;;;;;;5114167;28;20463;-73
2023/07/22 22:12:00;;;;;;;4.15;2.60;;;18.50;50.20;;;;;;5114119;28;20069;-73
2023/07/22 22:14:25;;;;;;;3.92;2.83;;;18.40;50.40;;;;;;5095594;28;20088;-73
2023/07/22 22:16:51;;;;;;;4.00;2.90;;;18.40;50.60;;;;;;5114013;28;20047;-74
2023/07/22 22:19:19;;;;;;;6.18;3.20;;;18.40;50.80;;;;;;5113921;28;20111;-74
2023/07/22 22:21:44;;;;;;;3.80;2.85;;;18.20;51.10;;;;;;5113759;28;20046;-74
2023/07/22 22:24:10;;;;;;;3.72;2.58;;;18.20;51.30;;;;;;5113728;28;20387;-73
2023/07/22 22:26:35;;;;;;;4.70;2.88;;;18.20;51.40;;;;;;5113859;28;20118;-74
2023/07/22 22:29:01;;;;;;;3.83;2.70;;;18.20;51.40;;;;;;5094599;28;20023;-75
2023/07/22 22:31:26;;;;;;;5.95;2.90;;;18.10;51.40;;;;;;5113339;28;20032;-73
2023/07/22 22:33:52;;;;;;;5.30;3.13;;;18.20;51.20;;;;;;5114008;28;20020;-75
2023/07/22 22:36:18;;;;;;;3.70;2.88;;;18.20;51.30;;;;;;5113763;28;20020;-75
2023/07/22 22:38:43;;;;;;;4.57;2.50;;;18.20;51.40;;;;;;5113816;28;20055;-75
2023/07/22 22:41:09;;;;;;;4.53;3.00;;;18.10;51.60;;;;;;5113801;28;20102;-75
2023/07/22 22:43:34;;;;;;;3.58;2.90;;;18.10;51.40;;;;;;5113829;28;20116;-74
2023/07/22 22:46:00;;;;;;;4.90;2.67;;;18.10;51.40;;;;;;5113728;28;20022;-74
2023/07/22 22:48:25;;;;;;;3.38;2.65;;;18.10;51.70;;;;;;5113462;28;20100;-74
2023/07/22 22:50:51;;;;;;;3.03;2.72;;;18.10;51.80;;;;;;5113458;28;20024;-73
2023/07/22 22:53:17;;;;;;;3.40;3.05;;;18.10;51.70;;;;;;5095244;28;20540;-73
2023/07/22 22:55:49;;;;;;;3.72;2.80;;;18.10;51.70;;;;;;5113634;28;20055;-74
2023/07/22 22:58:14;;;;;;;3.17;2.45;;;18.10;51.60;;;;;;5113632;28;20019;-76
2023/07/22 23:00:40;;;;;;;3.70;2.60;;;18.10;51.50;;;;;;5113412;28;20012;-74
2023/07/22 23:03:06;;;;;;;2.97;2.60;;;18.10;51.50;;;;;;5113485;28;20032;-74
2023/07/22 23:05:32;;;;;;;4.28;2.88;;;18.20;51.40;;;;;;5113422;28;20024;-73
2023/07/22 23:07:57;;;;;;;3.70;2.72;;;18.10;51.40;;;;;;5113384;28;20491;-74
2023/07/22 23:10:23;;;;;;;5.78;2.17;;;18.10;51.40;;;;;;5113382;28;20058;-74
2023/07/22 23:12:48;;;;;;;4.00;2.75;;;18.10;51.50;;;;;;5113359;28;20042;-73
2023/07/22 23:15:14;;;;;;;4.35;2.85;;;18.10;51.60;;;;;;5113654;28;20057;-74
2023/07/22 23:17:40;;;;;;;3.63;2.70;;;18.20;51.60;;;;;;5113135;28;20023;-74
2023/07/22 23:20:06;;;;;;;3.95;2.85;;;18.10;51.70;;;;;;5112960;28;20608;-74
2023/07/22 23:22:32;;;;;;;2.97;2.50;;;18.10;51.80;;;;;;5113217;28;20364;-73
2023/07/22 23:24:58;;;;;;;3.75;2.78;;;18.00;51.80;;;;;;5113219;28;20027;-74
2023/07/22 23:27:24;;;;;;;3.67;2.92;;;18.00;51.80;;;;;;5113373;28;20011;-75
2023/07/22 23:29:50;;;;;;;4.05;2.65;;;18.00;51.70;;;;;;5094746;28;20077;-73
2023/07/22 23:32:16;;;;;;;3.97;2.25;;;18.00;51.60;;;;;;5095080;28;20035;-74
2023/07/22 23:34:42;;;;;;;4.30;2.40;;;18.10;51.60;;;;;;5112960;28;20030;-76
2023/07/22 23:37:07;;;;;;;2.92;2.63;;;18.00;51.60;;;;;;5112877;28;20062;-75
2023/07/22 23:39:33;;;;;;;3.72;2.40;;;18.10;51.60;;;;;;5112845;28;20080;-76
2023/07/22 23:41:58;;;;;;;2.95;2.65;;;18.00;51.50;;;;;;5112885;28;20437;-75
2023/07/22 23:44:24;;;;;;;3.20;2.50;;;18.00;51.60;;;;;;5113029;28;20023;-75
2023/07/22 23:46:49;;;;;;;4.20;2.90;;;18.00;51.60;;;;;;5112929;28;20103;-74
2023/07/22 23:49:15;;;;;;;4.50;2.65;;;17.90;51.60;;;;;;5112870;28;20123;-75
2023/07/22 23:51:41;;;;;;;3.47;2.53;;;18.00;51.60;;;;;;5112821;28;20071;-75
2023/07/22 23:54:06;;;;;;;2.88;2.45;;;18.00;51.70;;;;;;5112989;28;20527;-75
2023/07/22 23:56:32;;;;;;;3.25;2.55;;;18.00;51.50;;;;;;5113029;28;20032;-75
2023/07/22 23:58:57;;;;;;;2.80;2.50;;;18.00;51.50;;;;;;5112888;28;20024;-75
